Time;durP1;ratioP1;P1;durP2;ratioP2;P2;SDS_P1;SDS_P2;PMS_P1;PMS_P2;Temp;Humidity;BMP_temperature;BMP_pressure;BME280_temperature;BME280_humidity;BME280_pressure;Samples;Min_cycle;Max_cycle;Signal;HPM_P1;HPM_P2
2020/12/23 00:00:10;;;;;;;13.90;10.10;;;9.10;99.90;;;10.12;100.00;100135.31;4719491;30;20304;-60
2020/12/23 00:02:38;;;;;;;11.67;8.73;;;9.10;99.90;;;10.12;100.00;100138.00;4719205;30;20226;-59
2020/12/23 00:05:08;;;;;;;10.37;8.83;;;9.10;99.90;;;10.21;100.00;100118.69;4718987;30;20326;-59
2020/12/23 00:07:36;;;;;;;12.20;9.00;;;9.20;99.90;;;10.08;100.00;100123.31;4719495;30;20297;-76
2020/12/23 00:10:06;;;;;;;13.87;10.43;;;9.10;99.90;;;10.27;100.00;100127.75;4719255;30;20301;-78
2020/12/23 00:12:34;;;;;;;12.93;10.13;;;9.10;99.90;;;10.06;100.00;100134.31;4719127;30;20268;-77
2020/12/23 00:15:06;;;;;;;13.10;10.87;;;9.10;99.90;;;9.96;100.00;100133.97;4719380;30;20218;-78
2020/12/23 00:17:34;;;;;;;14.47;10.50;;;9.10;99.90;;;10.01;100.00;100138.69;4719520;30;20202;-76
2020/12/23 00:20:01;;;;;;;14.17;11.37;;;9.00;99.90;;;10.09;100.00;100139.28;4719448;30;20216;-77
2020/12/23 00:22:28;;;;;;;14.60;11.20;;;9.10;99.90;;;10.16;100.00;100140.06;4719107;30;20249;-77
2020/12/23 00:24:55;;;;;;;12.80;10.13;;;9.10;99.90;;;10.20;100.00;100124.31;4718591;30;20305;-78
2020/12/23 00:27:23;;;;;;;13.70;10.03;;;9.10;99.90;;;10.19;100.00;100138.78;4718875;30;20237;-75
2020/12/23 00:29:51;;;;;;;13.27;9.00;;;9.10;99.90;;;10.20;100.00;100129.69;4718975;30;20256;-76
2020/12/23 00:32:20;;;;;;;13.67;9.47;;;9.10;99.90;;;10.15;100.00;100134.91;4719167;30;20214;-77
2020/12/23 00:34:48;;;;;;;13.27;9.33;;;9.20;99.90;;;10.01;100.00;100134.13;4734515;30;20279;-76
2020/12/23 00:37:15;;;;;;;12.00;8.87;;;9.10;99.90;;;10.14;100.00;100133.22;4736430;30;20344;-75
2020/12/23 00:39:42;;;;;;;12.33;9.63;;;9.10;99.90;;;10.35;100.00;100125.63;4735425;30;20224;-77
2020/12/23 00:42:10;;;;;;;12.53;9.70;;;9.20;99.90;;;10.33;100.00;100118.81;4736365;30;20666;-78
2020/12/23 00:44:38;;;;;;;11.93;9.60;;;9.20;99.90;;;10.33;100.00;100116.13;4736013;30;20676;-76
2020/12/23 00:47:06;;;;;;;12.20;9.80;;;9.20;99.90;;;10.23;100.00;100124.66;4736114;30;20597;-76
2020/12/23 00:49:33;;;;;;;10.43;9.33;;;9.20;99.90;;;10.24;100.00;100118.25;4735254;30;20328;-78
2020/12/23 00:52:00;;;;;;;11.17;9.27;;;9.20;99.90;;;10.17;100.00;100105.88;4736125;30;20240;-76
2020/12/23 00:54:27;;;;;;;11.83;9.73;;;9.20;99.90;;;10.04;100.00;100105.94;4736526;30;20209;-77
2020/12/23 00:56:57;;;;;;;10.67;8.83;;;9.20;99.90;;;10.04;100.00;100103.25;4742690;30;20629;-79
2020/12/23 00:59:25;;;;;;;11.17;9.03;;;9.10;99.90;;;10.03;100.00;100121.25;4742799;30;20247;-76
2020/12/23 01:01:58;;;;;;;12.00;8.77;;;9.10;99.90;;;9.93;100.00;100114.72;4735490;30;20240;-76
2020/12/23 01:04:26;;;;;;;10.67;8.57;;;9.00;99.90;;;9.96;100.00;100117.81;4728789;30;20305;-77
2020/12/23 01:06:54;;;;;;;12.23;9.10;;;9.00;99.90;;;10.02;100.00;100116.09;4718350;30;20697;-77
2020/12/23 01:09:21;;;;;;;11.07;8.43;;;9.00;99.90;;;9.98;100.00;100122.97;4717902;30;20271;-74
2020/12/23 01:11:49;;;;;;;11.93;8.93;;;9.00;99.90;;;10.03;100.00;100118.56;4718204;30;20297;-77
2020/12/23 01:14:16;;;;;;;12.50;9.23;;;9.00;99.90;;;10.00;100.00;100134.31;4718299;30;20296;-76
2020/12/23 01:16:44;;;;;;;11.57;8.17;;;9.00;99.90;;;9.99;100.00;100130.81;4718117;30;20344;-78
2020/12/23 01:19:13;;;;;;;13.17;8.90;;;9.00;99.90;;;9.88;100.00;100141.47;4718056;30;20309;-74
2020/12/23 01:21:44;;;;;;;11.00;8.60;;;8.90;99.90;;;9.92;100.00;100139.97;4718096;30;20238;-76
2020/12/23 01:24:11;;;;;;;13.17;9.33;;;8.90;99.90;;;10.04;100.00;100135.53;4717457;30;20688;-76
2020/12/23 01:26:39;;;;;;;11.70;9.13;;;9.00;99.90;;;10.15;100.00;100138.41;4717556;30;20213;-76
2020/12/23 01:29:07;;;;;;;13.93;9.20;;;9.00;99.90;;;10.21;100.00;100139.41;4717822;30;20280;-77
2020/12/23 01:31:34;;;;;;;10.97;8.50;;;9.10;99.90;;;10.18;100.00;100129.06;4717900;30;20221;-75
2020/12/23 01:34:04;;;;;;;13.20;9.50;;;9.10;99.90;;;10.17;100.00;100135.50;4723785;30;20650;-76
2020/12/23 01:36:32;;;;;;;14.00;9.50;;;9.10;99.90;;;10.27;100.00;100138.53;4717676;30;20233;-76
2020/12/23 01:39:00;;;;;;;14.53;9.20;;;9.10;99.90;;;10.28;100.00;100124.88;4717561;30;20225;-75
2020/12/23 01:41:27;;;;;;;12.03;8.80;;;9.20;99.90;;;10.35;100.00;100139.06;4717550;30;20300;-76
2020/12/23 01:43:57;;;;;;;13.20;8.30;;;9.20;99.90;;;10.26;100.00;100136.88;4717218;30;20308;-76
2020/12/23 01:46:33;;;;;;;11.10;8.97;;;9.20;99.90;;;10.20;100.00;100124.31;4717792;30;20712;-76
2020/12/23 01:49:04;;;;;;;11.60;8.73;;;9.20;99.90;;;10.25;100.00;100121.78;4717633;30;20268;-75
2020/12/23 01:51:34;;;;;;;11.87;8.67;;;9.20;99.90;;;10.27;100.00;100122.38;4717796;30;20285;-74
2020/12/23 01:54:02;;;;;;;13.90;9.10;;;9.20;99.90;;;10.41;100.00;100121.22;4717378;30;20248;-77
2020/12/23 01:56:30;;;;;;;11.17;8.10;;;9.30;99.90;;;10.39;100.00;100118.75;4717254;30;20237;-75
2020/12/23 01:58:58;;;;;;;10.57;7.93;;;9.30;99.90;;;10.29;100.00;100104.13;4717693;30;20210;-76
2020/12/23 02:01:30;;;;;;;11.37;8.20;;;9.30;99.90;;;10.21;100.00;100101.72;4717128;30;20217;-75
2020/12/23 02:03:57;;;;;;;12.57;8.70;;;9.20;99.90;;;10.19;100.00;100082.25;4717546;30;20213;-75
2020/12/23 02:06:25;;;;;;;12.23;9.10;;;9.20;99.90;;;10.21;100.00;100088.25;4717233;30;20740;-77
2020/12/23 02:08:56;;;;;;;11.70;8.40;;;9.20;99.90;;;10.10;100.00;100105.09;4717273;30;20240;-76
2020/12/23 02:11:23;;;;;;;11.07;8.57;;;9.20;99.90;;;10.08;100.00;100108.00;4717351;30;20233;-75
2020/12/23 02:13:50;;;;;;;10.70;7.90;;;9.20;99.90;;;10.22;100.00;100093.41;4717076;30;20692;-76
2020/12/23 02:16:17;;;;;;;11.07;8.07;;;9.20;99.90;;;10.16;100.00;100102.38;4717559;30;20660;-75
2020/12/23 02:18:45;;;;;;;10.40;8.40;;;9.10;99.90;;;10.24;100.00;100095.88;4717189;30;20280;-75
2020/12/23 02:21:24;;;;;;;13.10;8.37;;;9.10;99.90;;;10.21;100.00;100070.25;4717332;30;20281;-76
2020/12/23 02:23:52;;;;;;;11.73;8.10;;;9.10;99.90;;;10.15;100.00;100054.97;4717397;30;20210;-76
2020/12/23 02:26:20;;;;;;;11.60;8.27;;;9.20;99.90;;;10.23;100.00;100045.78;4717155;30;20229;-76
2020/12/23 02:28:47;;;;;;;10.30;7.67;;;9.20;99.90;;;10.35;100.00;100041.34;4717332;30;20264;-75
2020/12/23 02:31:14;;;;;;;9.70;7.30;;;9.20;99.90;;;10.31;100.00;100050.91;4716951;30;20220;-76
2020/12/23 02:33:42;;;;;;;11.90;8.20;;;9.30;99.90;;;10.37;100.00;100058.91;4724746;30;20303;-76
2020/12/23 02:36:09;;;;;;;11.40;7.53;;;9.30;99.90;;;10.38;100.00;100054.34;4734494;30;20770;-74
2020/12/23 02:38:36;;;;;;;9.43;7.50;;;9.40;99.90;;;10.23;100.00;100059.25;4734347;30;20235;-77
2020/12/23 02:41:04;;;;;;;9.40;7.53;;;9.30;99.90;;;10.24;100.00;100050.13;4734800;30;20295;-75
2020/12/23 02:43:32;;;;;;;10.10;7.33;;;9.30;99.90;;;10.07;100.00;100063.28;4734552;30;20209;-76
2020/12/23 02:45:59;;;;;;;9.17;7.40;;;9.20;99.90;;;9.96;100.00;100060.47;4734447;30;20304;-76
2020/12/23 02:48:26;;;;;;;10.23;7.40;;;9.10;99.90;;;9.87;100.00;100054.53;4734217;30;20299;-75
2020/12/23 02:50:53;;;;;;;11.93;8.20;;;9.10;99.90;;;9.91;100.00;100042.25;4734221;30;20733;-77
2020/12/23 02:53:21;;;;;;;10.53;7.57;;;9.00;99.90;;;9.76;100.00;100039.91;4734344;30;20237;-75
2020/12/23 02:55:48;;;;;;;10.10;7.90;;;8.90;99.90;;;9.62;100.00;100040.22;4734160;30;20327;-77
2020/12/23 02:58:16;;;;;;;10.43;7.33;;;8.90;99.90;;;9.69;100.00;100041.00;4734192;30;20259;-75
2020/12/23 03:00:44;;;;;;;11.13;8.17;;;8.80;99.90;;;9.88;100.00;100031.94;4734381;30;20576;-76
2020/12/23 03:03:12;;;;;;;9.80;7.33;;;8.80;99.90;;;9.82;100.00;100035.53;4720663;30;20287;-75
2020/12/23 03:05:39;;;;;;;11.00;7.40;;;8.80;99.90;;;9.79;100.00;100030.59;4716762;30;20645;-75
2020/12/23 03:08:06;;;;;;;9.30;7.57;;;8.80;99.90;;;9.67;100.00;100024.25;4716838;30;20213;-76
2020/12/23 03:10:33;;;;;;;10.27;7.60;;;8.70;99.90;;;9.73;100.00;100026.06;4716481;30;20245;-77
2020/12/23 03:13:01;;;;;;;11.07;7.83;;;8.70;99.90;;;9.81;100.00;100021.25;4717483;30;20217;-76
2020/12/23 03:15:29;;;;;;;11.20;7.83;;;8.70;99.90;;;9.71;100.00;100010.13;4720225;30;20249;-75
2020/12/23 03:17:56;;;;;;;10.47;7.93;;;8.70;99.90;;;9.71;100.00;100026.28;4719771;30;20311;-75
2020/12/23 03:20:23;;;;;;;10.63;7.77;;;8.70;99.90;;;9.71;100.00;100017.38;4720096;30;20256;-75
2020/12/23 03:22:50;;;;;;;11.63;7.57;;;8.70;99.90;;;9.77;100.00;100021.91;4719776;30;20287;-75
2020/12/23 03:25:17;;;;;;;10.50;7.67;;;8.70;99.90;;;9.78;100.00;100024.38;4719742;30;20300;-76
2020/12/23 03:27:45;;;;;;;11.53;7.30;;;8.70;99.90;;;9.80;100.00;100021.47;4719919;30;20300;-76
2020/12/23 03:30:12;;;;;;;12.53;8.27;;;8.70;99.90;;;9.72;100.00;100019.03;4719971;30;20309;-77
2020/12/23 03:32:40;;;;;;;11.57;7.93;;;8.70;99.90;;;9.70;100.00;100023.81;4719539;30;20231;-60
2020/12/23 03:35:17;;;;;;;11.17;7.73;;;8.70;99.90;;;9.66;100.00;100020.72;4725587;30;20213;-59
2020/12/23 03:37:44;;;;;;;13.40;9.10;;;8.70;99.90;;;9.64;100.00;100036.25;4719349;30;20327;-59
2020/12/23 03:40:12;;;;;;;11.57;8.47;;;8.70;99.90;;;9.70;100.00;100048.84;4719280;30;20256;-60
2020/12/23 03:42:39;;;;;;;11.73;7.97;;;8.70;99.90;;;9.84;100.00;100028.88;4719656;30;20308;-60
2020/12/23 03:45:06;;;;;;;9.77;7.73;;;8.80;99.90;;;9.97;100.00;100027.97;4719542;30;20309;-60
2020/12/23 03:47:33;;;;;;;12.20;8.60;;;8.80;99.90;;;10.20;100.00;100025.50;4719355;30;20245;-58
2020/12/23 03:50:01;;;;;;;11.20;8.23;;;8.90;99.90;;;10.20;100.00;100022.81;4719510;30;20316;-60
2020/12/23 03:52:29;;;;;;;11.93;8.40;;;9.00;99.90;;;10.27;100.00;100025.44;4719544;30;20276;-61
2020/12/23 03:54:56;;;;;;;11.57;8.37;;;9.00;99.90;;;10.19;100.00;100025.72;4718931;30;20280;-60
2020/12/23 03:57:23;;;;;;;10.97;8.00;;;9.10;99.90;;;10.25;100.00;100022.97;4719143;30;20736;-60
2020/12/23 03:59:50;;;;;;;11.70;8.33;;;9.10;99.90;;;10.53;100.00;100030.59;4719146;30;20756;-59
2020/12/23 04:02:17;;;;;;;12.33;8.37;;;9.20;99.90;;;10.39;100.00;100027.22;4718768;30;20744;-60
2020/12/23 04:04:45;;;;;;;10.30;7.70;;;9.30;99.90;;;10.52;100.00;100029.75;4719249;30;20225;-60
2020/12/23 04:07:13;;;;;;;9.87;7.03;;;9.30;99.90;;;10.42;100.00;100024.06;4718854;30;20622;-59
2020/12/23 04:09:40;;;;;;;11.47;8.50;;;9.30;99.90;;;10.50;100.00;100031.06;4718872;30;20296;-60
2020/12/23 04:12:07;;;;;;;11.20;8.47;;;9.30;99.90;;;10.47;100.00;100036.88;4718841;30;20218;-59
2020/12/23 04:14:35;;;;;;;12.03;8.40;;;9.30;99.90;;;10.34;100.00;100043.22;4719225;30;20248;-60
2020/12/23 04:17:02;;;;;;;10.73;8.07;;;9.30;99.90;;;10.15;100.00;100041.50;4718819;30;20264;-59
2020/12/23 04:19:29;;;;;;;10.77;8.03;;;9.20;99.90;;;10.06;100.00;100045.50;4718905;30;20213;-59
2020/12/23 04:21:56;;;;;;;11.40;8.37;;;9.10;99.90;;;10.12;100.00;100044.63;4718688;30;20685;-59
2020/12/23 04:24:24;;;;;;;12.07;8.60;;;9.10;99.90;;;10.29;100.00;100042.22;4717867;30;20245;-58
2020/12/23 04:26:52;;;;;;;11.50;8.17;;;9.10;99.90;;;10.19;100.00;100056.19;4720802;30;20693;-59
2020/12/23 04:29:19;;;;;;;10.87;7.80;;;9.20;99.90;;;10.17;100.00;100046.66;4718820;30;20213;-59
2020/12/23 04:31:46;;;;;;;11.60;8.67;;;9.10;99.90;;;10.13;100.00;100045.47;4718530;30;20222;-60
2020/12/23 04:34:14;;;;;;;10.53;8.53;;;9.10;99.90;;;10.03;100.00;100045.91;4724617;30;20300;-60
2020/12/23 04:36:41;;;;;;;12.97;8.63;;;9.00;99.90;;;9.75;100.00;100049.03;4718499;30;20328;-59
2020/12/23 04:39:08;;;;;;;13.37;9.00;;;9.00;99.90;;;9.78;100.00;100045.06;4718441;30;20304;-60
2020/12/23 04:41:37;;;;;;;11.93;8.63;;;8.90;99.90;;;9.79;100.00;100049.41;4718334;30;20268;-59
2020/12/23 04:44:05;;;;;;;11.77;8.53;;;8.90;99.90;;;9.92;100.00;100054.69;4718452;30;20246;-59
2020/12/23 04:46:36;;;;;;;13.50;8.77;;;8.90;99.90;;;9.97;100.00;100052.19;4718323;30;20245;-60
2020/12/23 04:49:05;;;;;;;12.57;9.03;;;8.90;99.90;;;9.99;100.00;100060.03;4718266;30;20792;-59
2020/12/23 04:51:34;;;;;;;14.27;9.10;;;8.90;99.90;;;10.14;100.00;100047.09;4718657;30;20741;-59
2020/12/23 04:54:04;;;;;;;12.93;9.53;;;8.90;99.90;;;10.19;100.00;100044.56;4718265;30;20305;-59
2020/12/23 04:56:34;;;;;;;15.80;8.90;;;9.00;99.90;;;10.39;100.00;100050.59;4717911;30;20328;-60
2020/12/23 04:59:04;;;;;;;10.73;8.97;;;9.10;99.90;;;10.10;100.00;100046.72;4718153;30;20235;-59
2020/12/23 05:01:32;;;;;;;13.40;8.67;;;9.10;99.90;;;10.04;100.00;100046.75;4718115;30;20280;-60
2020/12/23 05:03:59;;;;;;;13.43;9.53;;;9.00;99.90;;;10.14;100.00;100052.47;4718402;30;20321;-60
2020/12/23 05:06:26;;;;;;;14.20;9.10;;;9.10;99.90;;;10.21;100.00;100053.25;4718539;30;20312;-59
2020/12/23 05:08:54;;;;;;;13.93;8.77;;;9.10;99.90;;;10.12;100.00;100062.63;4718084;30;20214;-59
2020/12/23 05:11:21;;;;;;;15.20;9.10;;;9.10;99.90;;;10.19;100.00;100058.03;4717914;30;20221;-59
2020/12/23 05:13:48;;;;;;;13.47;9.43;;;9.10;99.90;;;10.18;100.00;100061.78;4718049;30;20300;-61
2020/12/23 05:16:23;;;;;;;16.40;10.40;;;9.10;99.90;;;10.05;100.00;100051.06;4717555;30;20286;-61
2020/12/23 05:18:57;;;;;;;12.43;9.20;;;9.00;99.90;;;10.08;100.00;100045.28;4718144;30;20225;-60
2020/12/23 05:21:26;;;;;;;16.13;10.20;;;9.00;99.90;;;10.06;100.00;100044.66;4717781;30;20312;-60
2020/12/23 05:23:56;;;;;;;12.77;9.33;;;9.00;99.90;;;10.08;100.00;100042.59;4717461;30;20245;-59
2020/12/23 05:26:25;;;;;;;12.70;8.87;;;9.00;99.90;;;10.07;100.00;100039.06;4718025;30;20241;-59
2020/12/23 05:28:54;;;;;;;15.73;9.77;;;9.00;99.90;;;10.18;100.00;100034.88;4717611;30;20305;-58
2020/12/23 05:31:23;;;;;;;13.43;9.87;;;9.10;99.90;;;10.27;100.00;100033.53;4717597;30;20300;-59
2020/12/23 05:33:50;;;;;;;14.07;10.33;;;9.10;99.90;;;10.23;100.00;100022.38;4723843;30;20249;-59
2020/12/23 05:36:37;;;;;;;15.47;9.70;;;9.10;99.90;;;10.23;100.00;100030.44;4717719;30;20221;-59
2020/12/23 05:39:07;;;;;;;13.80;9.80;;;9.10;99.90;;;10.17;100.00;100038.59;4717461;30;20252;-61
2020/12/23 05:41:37;;;;;;;12.87;9.10;;;9.10;99.90;;;10.14;100.00;100039.03;4717910;30;20213;-76
2020/12/23 05:44:18;;;;;;;15.73;10.13;;;9.10;99.90;;;10.31;100.00;100037.44;4717919;30;20237;-76
2020/12/23 05:46:48;;;;;;;16.47;10.10;;;9.20;99.90;;;10.23;100.00;100040.41;4717446;30;20292;-76
2020/12/23 05:49:17;;;;;;;14.07;9.80;;;9.10;99.90;;;10.24;100.00;100031.28;4717265;30;20249;-76
2020/12/23 05:51:45;;;;;;;14.90;10.67;;;9.20;99.90;;;10.20;100.00;100040.84;4717537;30;20245;-75
2020/12/23 05:54:13;;;;;;;15.77;10.53;;;9.20;99.90;;;10.13;100.00;100042.78;4717121;30;20225;-74
2020/12/23 05:56:42;;;;;;;14.33;10.40;;;9.10;99.90;;;10.29;100.00;100042.22;4716880;30;20324;-75
2020/12/23 05:59:10;;;;;;;13.30;9.47;;;9.10;99.90;;;10.19;100.00;100034.66;4717453;30;20605;-75
2020/12/23 06:01:39;;;;;;;15.47;10.73;;;9.10;99.90;;;10.25;100.00;100033.75;4717262;30;20217;-76
2020/12/23 06:04:12;;;;;;;14.83;10.73;;;9.10;99.90;;;10.18;100.00;100037.56;4717384;30;20252;-75
2020/12/23 06:07:05;;;;;;;14.43;9.60;;;9.10;99.90;;;10.14;100.00;100034.47;4716983;30;20214;-77
2020/12/23 06:09:39;;;;;;;14.93;10.80;;;9.10;99.90;;;10.09;100.00;100036.16;4717122;30;20189;-75
2020/12/23 06:12:20;;;;;;;13.87;10.23;;;9.10;99.90;;;10.01;100.00;100031.88;4717319;30;20284;-76
2020/12/23 06:14:55;;;;;;;15.27;10.77;;;9.10;99.90;;;10.17;100.00;100033.19;4717099;30;20233;-76
2020/12/23 06:17:25;;;;;;;15.67;10.63;;;9.00;99.90;;;10.18;100.00;100035.66;4717120;30;20216;-76
2020/12/23 06:19:57;;;;;;;14.73;10.00;;;9.10;99.90;;;10.17;100.00;100042.09;4717192;30;20240;-76
2020/12/23 06:22:27;;;;;;;15.77;10.57;;;9.10;99.90;;;10.08;100.00;100032.66;4717000;30;20198;-75
2020/12/23 06:24:54;;;;;;;16.73;10.93;;;9.10;99.90;;;10.08;100.00;100029.97;4716615;30;20273;-76
2020/12/23 06:27:21;;;;;;;15.87;10.47;;;9.00;99.90;;;10.13;100.00;100027.44;4717072;30;20244;-75
2020/12/23 06:29:49;;;;;;;15.83;10.53;;;9.00;99.90;;;10.01;100.00;100026.50;4716608;30;20306;-76
2020/12/23 06:32:22;;;;;;;15.80;10.73;;;9.00;99.90;;;10.08;100.00;100031.81;4716978;30;20218;-76
2020/12/23 06:34:57;;;;;;;14.27;10.33;;;9.00;99.90;;;10.03;100.00;100031.66;4723120;30;20248;-76
2020/12/23 06:37:27;;;;;;;14.13;10.07;;;9.00;99.90;;;10.05;100.00;100040.31;4716608;30;20530;-76
2020/12/23 06:39:54;;;;;;;14.23;10.00;;;9.00;99.90;;;10.04;100.00;100038.66;4716416;30;20411;-76
2020/12/23 06:42:30;;;;;;;16.13;10.03;;;9.00;99.90;;;10.02;100.00;100035.38;4716969;30;20300;-75
2020/12/23 06:45:12;;;;;;;15.03;10.57;;;9.00;99.90;;;10.04;100.00;100047.56;4716437;30;20293;-75
2020/12/23 06:47:42;;;;;;;15.40;10.90;;;8.90;99.90;;;10.05;100.00;100043.00;4716093;30;20237;-76
2020/12/23 06:50:30;;;;;;;15.00;10.50;;;8.90;99.90;;;10.00;100.00;100051.72;4716989;30;20268;-75
2020/12/23 06:52:59;;;;;;;13.87;9.70;;;9.00;99.90;;;10.12;100.00;100044.63;4716341;30;20201;-76
2020/12/23 06:55:46;;;;;;;17.17;11.40;;;9.00;99.90;;;10.10;100.00;100041.34;4716124;30;20221;-76
2020/12/23 06:58:38;;;;;;;14.70;10.30;;;9.00;99.90;;;10.15;100.00;100043.38;4716729;30;20229;-75
2020/12/23 07:01:17;;;;;;;15.40;10.50;;;9.00;99.90;;;10.20;100.00;100043.56;4719683;30;20602;-75
2020/12/23 07:03:46;;;;;;;13.73;10.80;;;9.00;99.90;;;10.24;100.00;100042.03;4731431;30;20251;-76
2020/12/23 07:06:32;;;;;;;13.80;9.60;;;9.00;99.90;;;10.11;100.00;100042.16;4716295;30;20217;-74
2020/12/23 07:09:05;;;;;;;14.23;10.27;;;9.00;99.90;;;10.10;100.00;100046.72;4716182;30;20225;-75
2020/12/23 07:11:37;;;;;;;14.03;10.43;;;9.10;99.90;;;10.10;100.00;100044.03;4716283;30;20302;-74
2020/12/23 07:14:06;;;;;;;17.17;11.33;;;9.00;99.90;;;10.05;100.00;100041.13;4715650;30;20229;-76
2020/12/23 07:16:41;;;;;;;14.33;10.33;;;9.00;99.90;;;10.10;100.00;100051.25;4715443;30;20695;-60
2020/12/23 07:19:10;;;;;;;15.23;10.73;;;9.00;99.90;;;10.18;100.00;100057.19;4715311;30;20252;-59
2020/12/23 07:21:39;;;;;;;16.20;10.73;;;9.00;99.90;;;10.26;100.00;100061.50;4715521;30;20260;-58
2020/12/23 07:24:07;;;;;;;15.43;10.70;;;9.10;99.90;;;10.30;100.00;100065.41;4715513;30;20249;-60
2020/12/23 07:26:39;;;;;;;15.40;10.70;;;9.10;99.90;;;10.31;100.00;100064.34;4715543;30;20220;-60
2020/12/23 07:29:09;;;;;;;16.27;10.07;;;9.10;99.90;;;10.35;100.00;100070.97;4715426;30;20698;-60
2020/12/23 07:31:40;;;;;;;16.70;11.37;;;9.20;99.90;;;10.34;100.00;100070.13;4715420;30;20572;-60
2020/12/23 07:34:08;;;;;;;16.60;11.13;;;9.20;99.90;;;10.37;100.00;100072.38;4721694;30;20213;-59
2020/12/23 07:36:37;;;;;;;16.47;11.07;;;9.20;99.90;;;10.44;100.00;100075.00;4715487;30;20221;-60
2020/12/23 07:39:04;;;;;;;17.43;10.77;;;9.30;99.90;;;10.49;100.00;100067.91;4715217;30;20249;-59
2020/12/23 07:41:32;;;;;;;16.27;10.70;;;9.30;99.90;;;10.48;100.00;100076.22;4715353;30;20245;-59
2020/12/23 07:44:00;;;;;;;14.23;10.43;;;9.30;99.90;;;10.56;100.00;100063.31;4715215;30;20305;-60
2020/12/23 07:46:27;;;;;;;15.23;10.20;;;9.30;99.90;;;10.64;100.00;100068.41;4715398;30;20218;-59
2020/12/23 07:48:55;;;;;;;15.10;10.63;;;9.40;99.90;;;10.58;100.00;100060.38;4715106;30;20792;-60
2020/12/23 07:51:23;;;;;;;16.73;11.10;;;9.40;99.90;;;10.63;100.00;100057.84;4715648;30;20214;-60
2020/12/23 07:53:51;;;;;;;16.10;11.17;;;9.40;99.90;;;10.91;100.00;100058.16;4715588;30;20304;-60
2020/12/23 07:56:18;;;;;;;18.30;11.27;;;9.50;99.90;;;10.81;100.00;100053.31;4714904;30;20252;-59
2020/12/23 07:58:46;;;;;;;16.13;11.20;;;9.60;99.90;;;10.82;100.00;100057.63;4718951;30;20276;-62
2020/12/23 08:01:13;;;;;;;15.70;10.83;;;9.60;99.90;;;10.78;100.00;100055.63;4735863;30;20248;-61
2020/12/23 08:03:41;;;;;;;16.30;10.93;;;9.60;99.90;;;10.85;100.00;100065.28;4740855;30;20299;-61
2020/12/23 08:06:10;;;;;;;16.03;11.23;;;9.70;99.90;;;10.94;100.00;100072.00;4715086;30;20224;-61
2020/12/23 08:08:40;;;;;;;15.27;10.63;;;9.70;99.90;;;11.05;100.00;100065.88;4715021;30;20232;-61
2020/12/23 08:11:09;;;;;;;14.60;10.83;;;9.70;99.90;;;11.12;100.00;100064.97;4714914;30;20221;-61
2020/12/23 08:13:37;;;;;;;14.87;10.53;;;9.80;99.90;;;11.17;100.00;100067.81;4714925;30;20232;-60
2020/12/23 08:16:07;;;;;;;16.07;10.30;;;9.90;99.90;;;11.16;100.00;100068.88;4715245;30;20218;-60
2020/12/23 08:18:36;;;;;;;14.77;10.73;;;9.90;99.90;;;11.21;100.00;100066.34;4714938;30;20312;-60
2020/12/23 08:21:08;;;;;;;14.47;10.90;;;9.90;99.90;;;11.27;100.00;100066.25;4715090;30;20241;-60
2020/12/23 08:23:36;;;;;;;14.63;10.53;;;9.90;99.90;;;11.33;100.00;100061.81;4714623;30;20715;-60
2020/12/23 08:26:05;;;;;;;15.27;11.00;;;10.00;99.90;;;11.42;100.00;100053.19;4714457;30;20267;-59
2020/12/23 08:28:36;;;;;;;13.53;9.70;;;10.10;99.90;;;11.47;100.00;100050.63;4718864;30;20200;-60
2020/12/23 08:31:06;;;;;;;12.87;9.90;;;10.10;99.90;;;11.67;100.00;100056.59;4732155;30;20372;-62
2020/12/23 08:33:36;;;;;;;14.77;10.63;;;10.20;99.90;;;11.66;100.00;100057.66;4734759;30;20208;-60
2020/12/23 08:36:05;;;;;;;13.77;9.43;;;10.30;99.90;;;11.60;100.00;100060.44;4714657;30;20465;-60
2020/12/23 08:38:38;;;;;;;13.60;8.93;;;10.30;99.90;;;11.78;100.00;100063.09;4714593;30;20303;-59
2020/12/23 08:41:14;;;;;;;11.13;8.20;;;10.40;99.90;;;11.99;100.00;100059.88;4714317;30;20319;-61
2020/12/23 08:43:47;;;;;;;10.07;7.97;;;10.60;99.90;;;11.86;100.00;100050.09;4714148;30;20204;-59
2020/12/23 08:46:21;;;;;;;12.77;8.73;;;10.60;99.90;;;11.64;100.00;100051.66;4714705;30;20334;-59
2020/12/23 08:48:50;;;;;;;11.83;7.83;;;10.50;99.90;;;11.69;100.00;100043.72;4714073;30;20607;-61
2020/12/23 08:51:20;;;;;;;10.43;7.63;;;10.60;99.90;;;11.67;100.00;100045.00;4714493;30;20295;-60
2020/12/23 08:53:52;;;;;;;9.70;7.73;;;10.60;99.90;;;11.91;100.00;100044.84;4713935;30;20209;-59
2020/12/23 08:56:25;;;;;;;9.37;7.60;;;10.60;99.90;;;11.85;100.00;100040.38;4713705;30;20208;-59
2020/12/23 08:59:00;;;;;;;11.20;7.07;;;10.70;99.90;;;12.10;100.00;100050.97;4713967;30;20296;-59
2020/12/23 09:01:29;;;;;;;9.90;6.50;;;10.80;99.90;;;12.00;100.00;100046.16;4714070;30;20286;-59
2020/12/23 09:04:04;;;;;;;8.80;6.67;;;10.80;99.90;;;11.94;100.00;100046.25;4715164;30;20221;-60
2020/12/23 09:06:32;;;;;;;10.43;7.33;;;10.80;99.90;;;12.06;100.00;100042.53;4713792;30;20217;-60
2020/12/23 09:09:10;;;;;;;9.57;7.00;;;10.90;99.90;;;11.87;100.00;100043.63;4713976;30;20210;-61
2020/12/23 09:11:43;;;;;;;8.93;6.23;;;10.90;99.90;;;12.18;100.00;100039.84;4712382;30;20686;-61
2020/12/23 09:14:23;;;;;;;9.13;5.90;;;11.00;99.90;;;12.17;100.00;100040.91;4730635;30;20680;-60
2020/12/23 09:16:59;;;;;;;11.17;7.00;;;11.00;99.90;;;11.99;100.00;100033.69;4731213;30;20551;-60
2020/12/23 09:19:52;;;;;;;8.00;6.53;;;11.10;99.90;;;11.94;100.00;100030.88;4730885;30;20274;-60
2020/12/23 09:22:35;;;;;;;8.17;6.20;;;10.90;99.90;;;12.00;100.00;100034.53;4730980;30;20708;-60
2020/12/23 09:25:20;;;;;;;7.50;5.77;;;11.00;99.90;;;11.90;100.00;100032.41;4730993;30;20198;-61
2020/12/23 09:27:50;;;;;;;9.37;5.60;;;11.00;99.90;;;11.95;100.00;100035.22;4730867;30;20251;-62
2020/12/23 09:30:39;;;;;;;6.43;5.30;;;11.00;99.90;;;12.09;100.00;100028.53;4731293;30;20259;-62
2020/12/23 09:33:08;;;;;;;7.13;5.43;;;11.00;99.90;;;12.19;100.00;100028.78;4731418;30;20229;-61
2020/12/23 09:35:37;;;;;;;9.23;5.60;;;11.10;99.90;;;12.19;100.00;100028.78;4717596;30;20221;-61
2020/12/23 09:38:10;;;;;;;9.77;5.67;;;11.20;99.90;;;12.16;100.00;100023.03;4713408;30;20248;-61
2020/12/23 09:40:41;;;;;;;7.20;5.37;;;11.20;99.90;;;12.07;100.00;100022.59;4713302;30;20193;-60
2020/12/23 09:43:15;;;;;;;7.00;5.73;;;11.20;99.90;;;12.13;100.00;100018.94;4713052;30;20288;-61
2020/12/23 09:45:43;;;;;;;7.47;5.60;;;11.10;99.90;;;12.08;100.00;100021.50;4713384;30;20296;-61
2020/12/23 09:48:13;;;;;;;8.37;5.60;;;11.20;99.90;;;12.14;100.00;100020.56;4713277;30;20252;-60
2020/12/23 09:50:42;;;;;;;7.10;5.40;;;11.20;99.90;;;12.21;100.00;100021.28;4713348;30;20194;-60
2020/12/23 09:53:12;;;;;;;8.03;5.70;;;11.20;99.90;;;12.27;100.00;100012.25;4713222;30;20617;-60
2020/12/23 09:55:40;;;;;;;7.40;5.87;;;11.20;99.90;;;12.32;100.00;100011.56;4712899;30;20305;-62
2020/12/23 09:58:08;;;;;;;7.93;5.90;;;11.30;99.90;;;12.24;100.00;100010.00;4712587;30;20325;-62
2020/12/23 10:00:35;;;;;;;7.30;6.10;;;11.30;99.90;;;12.21;100.00;100007.78;4713190;30;20213;-60
2020/12/23 10:03:03;;;;;;;7.77;6.00;;;11.30;99.90;;;12.22;100.00;99998.66;4712871;30;20316;-59
2020/12/23 10:05:32;;;;;;;7.50;6.43;;;11.30;99.90;;;12.24;100.00;100001.09;4712845;30;20315;-57
2020/12/23 10:08:00;;;;;;;6.50;5.80;;;11.30;99.90;;;12.11;100.00;99990.50;4713116;30;20280;-57
2020/12/23 10:10:28;;;;;;;8.43;6.28;;;11.30;99.90;;;12.26;100.00;99999.78;4712859;30;20248;-61
2020/12/23 10:12:56;;;;;;;8.80;5.80;;;11.30;99.90;;;12.21;100.00;99993.47;4712632;30;20244;-60
2020/12/23 10:15:23;;;;;;;6.33;5.17;;;11.30;99.90;;;12.18;100.00;100000.16;4712730;30;20309;-58